sensor_id;sensor_type;location;lat;lon;timestamp;P1;durP1;ratioP1;P2;durP2;ratioP2
13263;SDS011;6700;51.988;7.646;2023-07-29T00:00:44;4.30;;;3.95;;
13263;SDS011;6700;51.988;7.646;2023-07-29T00:03:11;6.90;;;4.10;;
13263;SDS011;6700;51.988;7.646;2023-07-29T00:05:39;4.80;;;4.15;;
13263;SDS011;6700;51.988;7.646;2023-07-29T00:08:06;4.28;;;3.97;;
13263;SDS011;6700;51.988;7.646;2023-07-29T00:10:35;6.03;;;4.45;;
13263;SDS011;6700;51.988;7.646;2023-07-29T00:13:03;4.68;;;4.28;;
13263;SDS011;6700;51.988;7.646;2023-07-29T00:15:31;5.57;;;4.68;;
13263;SDS011;6700;51.988;7.646;2023-07-29T00:17:58;4.63;;;4.22;;
13263;SDS011;6700;51.988;7.646;2023-07-29T00:20:26;4.72;;;4.30;;
13263;SDS011;6700;51.988;7.646;2023-07-29T00:22:53;8.18;;;4.78;;
13263;SDS011;6700;51.988;7.646;2023-07-29T00:25:21;7.32;;;4.60;;
13263;SDS011;6700;51.988;7.646;2023-07-29T00:27:49;5.03;;;4.53;;
13263;SDS011;6700;51.988;7.646;2023-07-29T00:30:16;5.40;;;4.63;;
13263;SDS011;6700;51.988;7.646;2023-07-29T00:32:43;4.68;;;4.28;;
13263;SDS011;6700;51.988;7.646;2023-07-29T00:35:11;4.72;;;4.32;;
13263;SDS011;6700;51.988;7.646;2023-07-29T00:37:38;5.78;;;4.32;;
13263;SDS011;6700;51.988;7.646;2023-07-29T00:40:12;4.75;;;4.35;;
13263;SDS011;6700;51.988;7.646;2023-07-29T00:42:42;4.10;;;3.75;;
13263;SDS011;6700;51.988;7.646;2023-07-29T00:45:10;4.80;;;4.38;;
13263;SDS011;6700;51.988;7.646;2023-07-29T00:47:37;4.55;;;4.15;;
13263;SDS011;6700;51.988;7.646;2023-07-29T00:50:05;3.60;;;3.30;;
13263;SDS011;6700;51.988;7.646;2023-07-29T00:52:33;4.25;;;3.85;;
13263;SDS011;6700;51.988;7.646;2023-07-29T00:55:00;5.25;;;4.03;;
13263;SDS011;6700;51.988;7.646;2023-07-29T00:57:28;3.88;;;3.58;;
13263;SDS011;6700;51.988;7.646;2023-07-29T00:59:56;3.63;;;3.30;;
13263;SDS011;6700;51.988;7.646;2023-07-29T01:02:23;4.43;;;4.03;;
13263;SDS011;6700;51.988;7.646;2023-07-29T01:04:54;4.72;;;4.20;;
13263;SDS011;6700;51.988;7.646;2023-07-29T01:12:54;5.10;;;3.90;;
13263;SDS011;6700;51.988;7.646;2023-07-29T01:15:26;5.03;;;4.53;;
13263;SDS011;6700;51.988;7.646;2023-07-29T01:17:55;4.73;;;4.33;;
13263;SDS011;6700;51.988;7.646;2023-07-29T01:20:24;5.18;;;4.68;;
13263;SDS011;6700;51.988;7.646;2023-07-29T01:22:52;5.13;;;4.45;;
13263;SDS011;6700;51.988;7.646;2023-07-29T01:25:19;4.68;;;4.28;;
13263;SDS011;6700;51.988;7.646;2023-07-29T01:27:48;5.33;;;4.43;;
13263;SDS011;6700;51.988;7.646;2023-07-29T01:30:18;5.30;;;4.80;;
13263;SDS011;6700;51.988;7.646;2023-07-29T01:32:57;5.33;;;4.83;;
13263;SDS011;6700;51.988;7.646;2023-07-29T01:35:31;5.43;;;4.77;;
13263;SDS011;6700;51.988;7.646;2023-07-29T01:38:01;7.13;;;6.43;;
13263;SDS011;6700;51.988;7.646;2023-07-29T01:40:30;6.40;;;5.80;;
13263;SDS011;6700;51.988;7.646;2023-07-29T01:42:57;5.97;;;5.20;;
13263;SDS011;6700;51.988;7.646;2023-07-29T01:45:25;6.83;;;5.10;;
13263;SDS011;6700;51.988;7.646;2023-07-29T01:47:52;5.80;;;5.20;;
13263;SDS011;6700;51.988;7.646;2023-07-29T01:50:20;6.22;;;5.63;;
13263;SDS011;6700;51.988;7.646;2023-07-29T01:52:47;6.87;;;5.20;;
13263;SDS011;6700;51.988;7.646;2023-07-29T01:55:14;5.40;;;4.90;;
13263;SDS011;6700;51.988;7.646;2023-07-29T01:57:42;5.13;;;4.70;;
13263;SDS011;6700;51.988;7.646;2023-07-29T02:00:11;5.93;;;4.80;;
13263;SDS011;6700;51.988;7.646;2023-07-29T02:02:38;6.17;;;4.47;;
13263;SDS011;6700;51.988;7.646;2023-07-29T02:05:06;6.70;;;4.87;;
13263;SDS011;6700;51.988;7.646;2023-07-29T02:07:33;5.30;;;4.40;;
13263;SDS011;6700;51.988;7.646;2023-07-29T02:10:00;5.67;;;4.43;;
13263;SDS011;6700;51.988;7.646;2023-07-29T02:12:28;5.37;;;4.87;;
13263;SDS011;6700;51.988;7.646;2023-07-29T02:14:55;5.40;;;4.90;;
13263;SDS011;6700;51.988;7.646;2023-07-29T02:17:23;7.63;;;5.17;;
13263;SDS011;6700;51.988;7.646;2023-07-29T02:19:50;7.40;;;5.57;;
13263;SDS011;6700;51.988;7.646;2023-07-29T02:22:17;6.00;;;5.40;;
13263;SDS011;6700;51.988;7.646;2023-07-29T02:24:45;5.80;;;5.20;;
13263;SDS011;6700;51.988;7.646;2023-07-29T02:27:12;5.60;;;5.03;;
13263;SDS011;6700;51.988;7.646;2023-07-29T02:29:40;5.23;;;4.73;;
13263;SDS011;6700;51.988;7.646;2023-07-29T02:32:08;6.03;;;5.53;;
13263;SDS011;6700;51.988;7.646;2023-07-29T02:34:35;5.27;;;4.77;;
13263;SDS011;6700;51.988;7.646;2023-07-29T02:37:03;5.77;;;4.53;;
13263;SDS011;6700;51.988;7.646;2023-07-29T02:39:31;4.30;;;3.90;;
13263;SDS011;6700;51.988;7.646;2023-07-29T02:41:58;5.50;;;4.75;;
13263;SDS011;6700;51.988;7.646;2023-07-29T02:44:25;5.53;;;4.67;;
13263;SDS011;6700;51.988;7.646;2023-07-29T02:46:52;4.17;;;3.87;;
13263;SDS011;6700;51.988;7.646;2023-07-29T02:49:22;4.50;;;4.10;;
13263;SDS011;6700;51.988;7.646;2023-07-29T02:51:50;4.40;;;4.00;;
13263;SDS011;6700;51.988;7.646;2023-07-29T02:54:17;4.83;;;3.93;;
13263;SDS011;6700;51.988;7.646;2023-07-29T02:56:44;5.03;;;4.53;;
13263;SDS011;6700;51.988;7.646;2023-07-29T02:59:11;4.30;;;3.90;;
13263;SDS011;6700;51.988;7.646;2023-07-29T03:01:38;4.97;;;4.03;;
13263;SDS011;6700;51.988;7.646;2023-07-29T03:04:05;4.57;;;4.17;;
13263;SDS011;6700;51.988;7.646;2023-07-29T03:06:32;4.32;;;3.72;;
13263;SDS011;6700;51.988;7.646;2023-07-29T03:09:00;4.43;;;4.03;;
13263;SDS011;6700;51.988;7.646;2023-07-29T03:11:27;4.90;;;4.40;;
13263;SDS011;6700;51.988;7.646;2023-07-29T03:13:54;4.50;;;4.10;;
13263;SDS011;6700;51.988;7.646;2023-07-29T03:16:22;5.85;;;4.13;;
13263;SDS011;6700;51.988;7.646;2023-07-29T03:18:50;6.43;;;4.78;;
13263;SDS011;6700;51.988;7.646;2023-07-29T03:21:17;5.80;;;4.90;;
13263;SDS011;6700;51.988;7.646;2023-07-29T03:23:44;6.30;;;5.80;;
13263;SDS011;6700;51.988;7.646;2023-07-29T03:26:11;5.72;;;5.22;;
13263;SDS011;6700;51.988;7.646;2023-07-29T03:28:42;5.93;;;5.30;;
13263;SDS011;6700;51.988;7.646;2023-07-29T03:31:10;7.43;;;5.33;;
13263;SDS011;6700;51.988;7.646;2023-07-29T03:33:37;6.67;;;5.23;;
13263;SDS011;6700;51.988;7.646;2023-07-29T03:36:05;5.40;;;4.90;;
13263;SDS011;6700;51.988;7.646;2023-07-29T03:38:32;5.03;;;4.53;;
13263;SDS011;6700;51.988;7.646;2023-07-29T03:41:01;5.53;;;4.93;;
13263;SDS011;6700;51.988;7.646;2023-07-29T03:43:29;6.13;;;5.53;;
13263;SDS011;6700;51.988;7.646;2023-07-29T03:45:56;6.97;;;5.37;;
13263;SDS011;6700;51.988;7.646;2023-07-29T03:48:24;7.87;;;5.43;;
13263;SDS011;6700;51.988;7.646;2023-07-29T03:50:51;6.67;;;5.20;;
13263;SDS011;6700;51.988;7.646;2023-07-29T03:53:18;6.33;;;5.53;;
13263;SDS011;6700;51.988;7.646;2023-07-29T03:55:45;5.93;;;5.43;;
13263;SDS011;6700;51.988;7.646;2023-07-29T03:58:13;8.57;;;6.07;;
13263;SDS011;6700;51.988;7.646;2023-07-29T04:00:40;5.90;;;5.30;;
13263;SDS011;6700;51.988;7.646;2023-07-29T04:03:08;5.90;;;5.40;;
13263;SDS011;6700;51.988;7.646;2023-07-29T04:05:35;6.00;;;5.37;;
13263;SDS011;6700;51.988;7.646;2023-07-29T04:08:03;6.07;;;5.47;;
13263;SDS011;6700;51.988;7.646;2023-07-29T04:10:30;6.33;;;5.83;;
13263;SDS011;6700;51.988;7.646;2023-07-29T04:12:58;7.05;;;6.13;;
13263;SDS011;6700;51.988;7.646;2023-07-29T04:15:25;8.90;;;7.07;;
13263;SDS011;6700;51.988;7.646;2023-07-29T04:17:52;5.70;;;5.10;;
13263;SDS011;6700;51.988;7.646;2023-07-29T04:20:19;6.17;;;5.67;;
13263;SDS011;6700;51.988;7.646;2023-07-29T04:22:46;5.80;;;5.30;;
13263;SDS011;6700;51.988;7.646;2023-07-29T04:25:14;6.70;;;6.10;;
13263;SDS011;6700;51.988;7.646;2023-07-29T04:27:41;6.78;;;6.00;;
13263;SDS011;6700;51.988;7.646;2023-07-29T04:30:08;7.03;;;5.50;;
13263;SDS011;6700;51.988;7.646;2023-07-29T04:32:35;6.00;;;5.40;;
13263;SDS011;6700;51.988;7.646;2023-07-29T04:35:03;6.97;;;5.70;;
13263;SDS011;6700;51.988;7.646;2023-07-29T04:37:30;5.97;;;5.47;;
13263;SDS011;6700;51.988;7.646;2023-07-29T04:39:57;6.95;;;6.22;;
13263;SDS011;6700;51.988;7.646;2023-07-29T04:42:24;7.55;;;6.45;;
13263;SDS011;6700;51.988;7.646;2023-07-29T04:44:52;6.72;;;6.13;;
13263;SDS011;6700;51.988;7.646;2023-07-29T04:47:19;7.53;;;6.07;;
13263;SDS011;6700;51.988;7.646;2023-07-29T04:49:46;7.43;;;6.82;;
13263;SDS011;6700;51.988;7.646;2023-07-29T04:52:13;5.63;;;5.13;;
13263;SDS011;6700;51.988;7.646;2023-07-29T04:54:41;6.85;;;6.25;;
13263;SDS011;6700;51.988;7.646;2023-07-29T04:57:08;6.68;;;6.03;;
13263;SDS011;6700;51.988;7.646;2023-07-29T04:59:35;7.43;;;5.75;;
13263;SDS011;6700;51.988;7.646;2023-07-29T05:02:02;6.80;;;5.43;;
13263;SDS011;6700;51.988;7.646;2023-07-29T05:04:30;7.05;;;6.25;;
13263;SDS011;6700;51.988;7.646;2023-07-29T05:06:57;8.77;;;6.18;;
13263;SDS011;6700;51.988;7.646;2023-07-29T05:09:24;6.28;;;5.68;;
13263;SDS011;6700;51.988;7.646;2023-07-29T05:11:54;6.68;;;5.85;;
13263;SDS011;6700;51.988;7.646;2023-07-29T05:14:21;6.80;;;6.20;;
13263;SDS011;6700;51.988;7.646;2023-07-29T05:16:48;5.68;;;5.18;;
13263;SDS011;6700;51.988;7.646;2023-07-29T05:19:16;6.67;;;5.97;;
13263;SDS011;6700;51.988;7.646;2023-07-29T05:21:43;7.38;;;6.43;;
13263;SDS011;6700;51.988;7.646;2023-07-29T05:24:11;6.93;;;6.33;;
13263;SDS011;6700;51.988;7.646;2023-07-29T05:26:38;7.18;;;6.50;;
13263;SDS011;6700;51.988;7.646;2023-07-29T05:29:05;7.75;;;6.35;;
13263;SDS011;6700;51.988;7.646;2023-07-29T05:31:33;6.60;;;5.97;;
13263;SDS011;6700;51.988;7.646;2023-07-29T05:34:00;7.25;;;6.65;;
13263;SDS011;6700;51.988;7.646;2023-07-29T05:36:27;6.93;;;6.32;;
13263;SDS011;6700;51.988;7.646;2023-07-29T05:38:55;6.88;;;6.15;;
13263;SDS011;6700;51.988;7.646;2023-07-29T05:41:22;7.05;;;6.35;;
13263;SDS011;6700;51.988;7.646;2023-07-29T05:43:50;7.28;;;6.57;;
13263;SDS011;6700;51.988;7.646;2023-07-29T05:46:17;11.20;;;7.07;;
13263;SDS011;6700;51.988;7.646;2023-07-29T05:48:45;8.05;;;7.25;;
13263;SDS011;6700;51.988;7.646;2023-07-29T05:51:12;8.30;;;7.28;;
13263;SDS011;6700;51.988;7.646;2023-07-29T05:53:39;8.75;;;7.85;;
13263;SDS011;6700;51.988;7.646;2023-07-29T05:56:07;9.93;;;9.02;;
13263;SDS011;6700;51.988;7.646;2023-07-29T05:58:34;8.57;;;7.65;;
13263;SDS011;6700;51.988;7.646;2023-07-29T06:01:01;8.88;;;7.95;;
13263;SDS011;6700;51.988;7.646;2023-07-29T06:03:28;7.95;;;7.25;;
13263;SDS011;6700;51.988;7.646;2023-07-29T06:05:56;8.50;;;7.80;;
13263;SDS011;6700;51.988;7.646;2023-07-29T06:08:23;8.40;;;7.53;;
13263;SDS011;6700;51.988;7.646;2023-07-29T06:10:52;8.77;;;8.02;;
13263;SDS011;6700;51.988;7.646;2023-07-29T06:13:19;8.20;;;7.50;;
13263;SDS011;6700;51.988;7.646;2023-07-29T06:15:47;8.02;;;7.32;;
13263;SDS011;6700;51.988;7.646;2023-07-29T06:18:14;7.70;;;6.93;;
13263;SDS011;6700;51.988;7.646;2023-07-29T06:20:41;8.60;;;7.45;;
13263;SDS011;6700;51.988;7.646;2023-07-29T06:23:08;8.23;;;7.47;;
13263;SDS011;6700;51.988;7.646;2023-07-29T06:25:35;9.07;;;7.80;;
13263;SDS011;6700;51.988;7.646;2023-07-29T06:28:03;7.85;;;7.18;;
13263;SDS011;6700;51.988;7.646;2023-07-29T06:30:31;7.80;;;7.10;;
13263;SDS011;6700;51.988;7.646;2023-07-29T06:32:58;8.43;;;7.72;;
13263;SDS011;6700;51.988;7.646;2023-07-29T06:35:25;8.65;;;7.85;;
13263;SDS011;6700;51.988;7.646;2023-07-29T06:37:53;8.43;;;7.72;;
13263;SDS011;6700;51.988;7.646;2023-07-29T06:40:20;9.20;;;8.35;;
13263;SDS011;6700;51.988;7.646;2023-07-29T06:42:47;8.50;;;7.60;;
13263;SDS011;6700;51.988;7.646;2023-07-29T06:45:15;8.85;;;8.05;;
13263;SDS011;6700;51.988;7.646;2023-07-29T06:47:42;8.13;;;7.45;;
13263;SDS011;6700;51.988;7.646;2023-07-29T06:50:09;7.43;;;6.82;;
13263;SDS011;6700;51.988;7.646;2023-07-29T06:52:37;7.85;;;7.25;;
13263;SDS011;6700;51.988;7.646;2023-07-29T06:55:04;8.38;;;6.82;;
13263;SDS011;6700;51.988;7.646;2023-07-29T06:57:31;6.70;;;6.15;;
13263;SDS011;6700;51.988;7.646;2023-07-29T06:59:59;5.95;;;5.45;;
13263;SDS011;6700;51.988;7.646;2023-07-29T07:02:26;5.03;;;4.63;;
13263;SDS011;6700;51.988;7.646;2023-07-29T07:04:53;3.20;;;3.00;;
13263;SDS011;6700;51.988;7.646;2023-07-29T07:07:20;4.32;;;2.75;;
13263;SDS011;6700;51.988;7.646;2023-07-29T07:09:48;2.72;;;2.42;;
13263;SDS011;6700;51.988;7.646;2023-07-29T07:12:17;3.40;;;2.22;;
13263;SDS011;6700;51.988;7.646;2023-07-29T07:14:45;2.30;;;2.13;;
13263;SDS011;6700;51.988;7.646;2023-07-29T07:17:12;2.05;;;1.88;;
13263;SDS011;6700;51.988;7.646;2023-07-29T07:19:39;2.28;;;2.08;;
13263;SDS011;6700;51.988;7.646;2023-07-29T07:22:07;3.00;;;1.95;;
13263;SDS011;6700;51.988;7.646;2023-07-29T07:24:34;2.85;;;2.35;;
13263;SDS011;6700;51.988;7.646;2023-07-29T07:27:02;1.80;;;1.70;;
13263;SDS011;6700;51.988;7.646;2023-07-29T07:29:29;2.55;;;1.80;;
13263;SDS011;6700;51.988;7.646;2023-07-29T07:31:57;2.33;;;2.13;;
13263;SDS011;6700;51.988;7.646;2023-07-29T07:34:25;2.63;;;2.30;;
13263;SDS011;6700;51.988;7.646;2023-07-29T07:36:52;2.38;;;2.17;;
13263;SDS011;6700;51.988;7.646;2023-07-29T07:39:20;2.25;;;2.08;;
13263;SDS011;6700;51.988;7.646;2023-07-29T07:41:47;1.92;;;1.83;;
13263;SDS011;6700;51.988;7.646;2023-07-29T07:44:14;2.13;;;1.90;;
13263;SDS011;6700;51.988;7.646;2023-07-29T07:46:44;2.25;;;2.05;;
13263;SDS011;6700;51.988;7.646;2023-07-29T07:49:11;2.38;;;2.17;;
13263;SDS011;6700;51.988;7.646;2023-07-29T07:51:39;2.78;;;1.75;;
13263;SDS011;6700;51.988;7.646;2023-07-29T07:54:06;1.95;;;1.67;;
13263;SDS011;6700;51.988;7.646;2023-07-29T07:56:33;2.00;;;1.90;;
13263;SDS011;6700;51.988;7.646;2023-07-29T07:59:01;1.50;;;1.40;;
13263;SDS011;6700;51.988;7.646;2023-07-29T08:01:33;2.53;;;2.00;;
13263;SDS011;6700;51.988;7.646;2023-07-29T08:04:01;2.13;;;2.03;;
13263;SDS011;6700;51.988;7.646;2023-07-29T08:06:28;1.70;;;1.60;;
13263;SDS011;6700;51.988;7.646;2023-07-29T08:08:55;2.35;;;1.90;;
13263;SDS011;6700;51.988;7.646;2023-07-29T08:11:23;2.10;;;1.90;;
13263;SDS011;6700;51.988;7.646;2023-07-29T08:13:50;2.47;;;2.28;;
13263;SDS011;6700;51.988;7.646;2023-07-29T08:16:17;2.78;;;2.00;;
13263;SDS011;6700;51.988;7.646;2023-07-29T08:18:44;2.08;;;1.88;;
13263;SDS011;6700;51.988;7.646;2023-07-29T08:21:11;2.20;;;2.00;;
13263;SDS011;6700;51.988;7.646;2023-07-29T08:23:41;2.35;;;2.15;;
13263;SDS011;6700;51.988;7.646;2023-07-29T08:26:08;3.58;;;2.25;;
13263;SDS011;6700;51.988;7.646;2023-07-29T08:28:36;1.92;;;1.83;;
13263;SDS011;6700;51.988;7.646;2023-07-29T08:31:04;3.05;;;2.25;;
13263;SDS011;6700;51.988;7.646;2023-07-29T08:33:32;2.03;;;1.92;;
13263;SDS011;6700;51.988;7.646;2023-07-29T08:36:00;3.45;;;1.85;;
13263;SDS011;6700;51.988;7.646;2023-07-29T08:38:27;2.25;;;1.90;;
13263;SDS011;6700;51.988;7.646;2023-07-29T08:43:28;2.42;;;1.42;;
13263;SDS011;6700;51.988;7.646;2023-07-29T08:45:59;1.80;;;1.70;;
13263;SDS011;6700;51.988;7.646;2023-07-29T08:48:29;5.65;;;1.60;;
13263;SDS011;6700;51.988;7.646;2023-07-29T08:50:59;1.80;;;1.52;;
13263;SDS011;6700;51.988;7.646;2023-07-29T08:53:28;1.30;;;1.20;;
13263;SDS011;6700;51.988;7.646;2023-07-29T08:55:55;1.70;;;1.60;;
13263;SDS011;6700;51.988;7.646;2023-07-29T08:58:25;1.52;;;1.42;;
13263;SDS011;6700;51.988;7.646;2023-07-29T09:00:52;1.52;;;1.42;;
13263;SDS011;6700;51.988;7.646;2023-07-29T09:03:20;1.70;;;1.60;;
13263;SDS011;6700;51.988;7.646;2023-07-29T09:05:47;1.80;;;1.70;;
13263;SDS011;6700;51.988;7.646;2023-07-29T09:08:14;1.60;;;1.50;;
13263;SDS011;6700;51.988;7.646;2023-07-29T09:10:42;1.83;;;1.73;;
13263;SDS011;6700;51.988;7.646;2023-07-29T09:13:09;1.70;;;1.60;;
13263;SDS011;6700;51.988;7.646;2023-07-29T09:15:36;2.28;;;1.67;;
13263;SDS011;6700;51.988;7.646;2023-07-29T09:18:10;1.50;;;1.40;;
13263;SDS011;6700;51.988;7.646;2023-07-29T09:20:38;2.80;;;2.58;;
13263;SDS011;6700;51.988;7.646;2023-07-29T09:23:07;2.03;;;1.90;;
13263;SDS011;6700;51.988;7.646;2023-07-29T09:25:35;1.13;;;1.10;;
13263;SDS011;6700;51.988;7.646;2023-07-29T09:28:13;1.73;;;1.63;;
13263;SDS011;6700;51.988;7.646;2023-07-29T09:30:42;1.63;;;1.40;;
13263;SDS011;6700;51.988;7.646;2023-07-29T09:33:09;1.25;;;1.15;;
13263;SDS011;6700;51.988;7.646;2023-07-29T09:35:37;1.35;;;1.27;;
13263;SDS011;6700;51.988;7.646;2023-07-29T09:38:05;1.70;;;1.60;;
13263;SDS011;6700;51.988;7.646;2023-07-29T09:40:39;1.60;;;1.50;;
13263;SDS011;6700;51.988;7.646;2023-07-29T09:43:08;1.63;;;1.40;;
13263;SDS011;6700;51.988;7.646;2023-07-29T09:45:35;2.70;;;1.40;;
13263;SDS011;6700;51.988;7.646;2023-07-29T09:48:03;1.08;;;1.08;;
13263;SDS011;6700;51.988;7.646;2023-07-29T09:50:36;1.50;;;1.40;;
13263;SDS011;6700;51.988;7.646;2023-07-29T09:53:03;1.85;;;1.30;;
13263;SDS011;6700;51.988;7.646;2023-07-29T09:55:32;2.03;;;1.50;;
13263;SDS011;6700;51.988;7.646;2023-07-29T09:58:00;1.27;;;1.20;;
13263;SDS011;6700;51.988;7.646;2023-07-29T10:00:30;1.52;;;1.38;;
13263;SDS011;6700;51.988;7.646;2023-07-29T10:02:58;1.35;;;0.98;;
13263;SDS011;6700;51.988;7.646;2023-07-29T10:05:26;1.10;;;0.88;;
13263;SDS011;6700;51.988;7.646;2023-07-29T10:07:54;1.42;;;1.33;;
13263;SDS011;6700;51.988;7.646;2023-07-29T10:10:22;1.50;;;1.10;;
13263;SDS011;6700;51.988;7.646;2023-07-29T10:12:51;1.20;;;1.10;;
13263;SDS011;6700;51.988;7.646;2023-07-29T10:15:19;1.15;;;1.02;;
13263;SDS011;6700;51.988;7.646;2023-07-29T10:17:47;1.10;;;1.10;;
13263;SDS011;6700;51.988;7.646;2023-07-29T10:20:15;2.17;;;1.30;;
13263;SDS011;6700;51.988;7.646;2023-07-29T10:22:43;1.40;;;1.30;;
13263;SDS011;6700;51.988;7.646;2023-07-29T10:25:16;2.08;;;1.45;;
13263;SDS011;6700;51.988;7.646;2023-07-29T10:27:47;1.40;;;1.30;;
13263;SDS011;6700;51.988;7.646;2023-07-29T10:30:15;0.90;;;0.90;;
13263;SDS011;6700;51.988;7.646;2023-07-29T10:32:42;1.10;;;1.10;;
13263;SDS011;6700;51.988;7.646;2023-07-29T10:35:14;0.95;;;0.95;;
13263;SDS011;6700;51.988;7.646;2023-07-29T10:37:41;1.48;;;1.38;;
13263;SDS011;6700;51.988;7.646;2023-07-29T10:40:09;1.05;;;1.05;;
13263;SDS011;6700;51.988;7.646;2023-07-29T10:42:38;2.42;;;1.25;;
13263;SDS011;6700;51.988;7.646;2023-07-29T10:45:18;1.60;;;1.50;;
13263;SDS011;6700;51.988;7.646;2023-07-29T10:47:46;1.38;;;1.27;;
13263;SDS011;6700;51.988;7.646;2023-07-29T10:50:17;3.13;;;2.67;;
13263;SDS011;6700;51.988;7.646;2023-07-29T10:52:48;1.30;;;1.20;;
13263;SDS011;6700;51.988;7.646;2023-07-29T10:55:37;1.50;;;1.40;;
13263;SDS011;6700;51.988;7.646;2023-07-29T10:58:04;1.90;;;1.20;;
13263;SDS011;6700;51.988;7.646;2023-07-29T11:00:32;1.58;;;1.48;;
13263;SDS011;6700;51.988;7.646;2023-07-29T11:03:00;1.13;;;1.10;;
13263;SDS011;6700;51.988;7.646;2023-07-29T11:05:41;1.45;;;1.35;;
13263;SDS011;6700;51.988;7.646;2023-07-29T11:08:28;1.52;;;1.30;;
13263;SDS011;6700;51.988;7.646;2023-07-29T11:11:08;1.45;;;1.35;;
13263;SDS011;6700;51.988;7.646;2023-07-29T11:13:36;1.30;;;1.20;;
13263;SDS011;6700;51.988;7.646;2023-07-29T11:16:04;1.35;;;1.25;;
13263;SDS011;6700;51.988;7.646;2023-07-29T11:18:32;1.67;;;1.58;;
13263;SDS011;6700;51.988;7.646;2023-07-29T11:21:00;1.50;;;1.40;;
13263;SDS011;6700;51.988;7.646;2023-07-29T11:23:29;2.42;;;1.90;;
13263;SDS011;6700;51.988;7.646;2023-07-29T11:25:56;1.60;;;1.50;;
13263;SDS011;6700;51.988;7.646;2023-07-29T11:28:24;1.27;;;1.20;;
13263;SDS011;6700;51.988;7.646;2023-07-29T11:30:52;1.40;;;1.30;;
13263;SDS011;6700;51.988;7.646;2023-07-29T11:33:20;1.70;;;1.60;;
13263;SDS011;6700;51.988;7.646;2023-07-29T11:35:49;1.63;;;1.52;;
13263;SDS011;6700;51.988;7.646;2023-07-29T11:38:16;1.83;;;1.70;;
13263;SDS011;6700;51.988;7.646;2023-07-29T11:40:53;1.63;;;1.52;;
13263;SDS011;6700;51.988;7.646;2023-07-29T11:43:21;1.70;;;1.60;;
13263;SDS011;6700;51.988;7.646;2023-07-29T11:45:48;1.60;;;1.50;;
13263;SDS011;6700;51.988;7.646;2023-07-29T11:48:18;2.92;;;1.52;;
13263;SDS011;6700;51.988;7.646;2023-07-29T11:50:45;1.48;;;1.30;;
13263;SDS011;6700;51.988;7.646;2023-07-29T11:53:12;1.30;;;1.20;;
13263;SDS011;6700;51.988;7.646;2023-07-29T11:55:42;1.50;;;1.40;;
13263;SDS011;6700;51.988;7.646;2023-07-29T11:58:11;1.45;;;1.35;;
13263;SDS011;6700;51.988;7.646;2023-07-29T12:00:38;1.88;;;1.70;;
13263;SDS011;6700;51.988;7.646;2023-07-29T12:03:07;1.88;;;1.60;;
13263;SDS011;6700;51.988;7.646;2023-07-29T12:05:36;1.50;;;1.40;;
13263;SDS011;6700;51.988;7.646;2023-07-29T12:08:03;1.52;;;1.42;;
13263;SDS011;6700;51.988;7.646;2023-07-29T12:10:30;1.80;;;1.70;;
13263;SDS011;6700;51.988;7.646;2023-07-29T12:12:58;1.50;;;1.40;;
13263;SDS011;6700;51.988;7.646;2023-07-29T12:15:26;1.60;;;1.50;;
13263;SDS011;6700;51.988;7.646;2023-07-29T12:17:54;1.67;;;1.58;;
13263;SDS011;6700;51.988;7.646;2023-07-29T12:20:23;3.08;;;1.55;;
13263;SDS011;6700;51.988;7.646;2023-07-29T12:22:54;1.90;;;1.80;;
13263;SDS011;6700;51.988;7.646;2023-07-29T12:25:22;2.90;;;1.45;;
13263;SDS011;6700;51.988;7.646;2023-07-29T12:27:49;2.67;;;1.80;;
13263;SDS011;6700;51.988;7.646;2023-07-29T12:30:20;1.73;;;1.60;;
13263;SDS011;6700;51.988;7.646;2023-07-29T12:32:47;1.85;;;1.70;;
13263;SDS011;6700;51.988;7.646;2023-07-29T12:35:14;1.90;;;1.80;;
13263;SDS011;6700;51.988;7.646;2023-07-29T12:37:42;1.58;;;1.48;;
13263;SDS011;6700;51.988;7.646;2023-07-29T12:40:22;1.70;;;1.60;;
13263;SDS011;6700;51.988;7.646;2023-07-29T12:42:50;1.80;;;1.67;;
13263;SDS011;6700;51.988;7.646;2023-07-29T12:45:18;1.80;;;1.70;;
13263;SDS011;6700;51.988;7.646;2023-07-29T12:47:45;2.03;;;1.70;;
13263;SDS011;6700;51.988;7.646;2023-07-29T12:50:12;1.65;;;1.55;;
13263;SDS011;6700;51.988;7.646;2023-07-29T12:52:39;1.85;;;1.75;;
13263;SDS011;6700;51.988;7.646;2023-07-29T12:55:07;1.60;;;1.50;;
13263;SDS011;6700;51.988;7.646;2023-07-29T12:57:35;2.15;;;1.98;;
13263;SDS011;6700;51.988;7.646;2023-07-29T13:00:03;1.90;;;1.80;;
13263;SDS011;6700;51.988;7.646;2023-07-29T13:02:31;1.77;;;1.67;;
13263;SDS011;6700;51.988;7.646;2023-07-29T13:04:58;1.80;;;1.70;;
13263;SDS011;6700;51.988;7.646;2023-07-29T13:07:25;1.85;;;1.75;;
13263;SDS011;6700;51.988;7.646;2023-07-29T13:09:52;1.80;;;1.70;;
13263;SDS011;6700;51.988;7.646;2023-07-29T13:12:20;1.80;;;1.70;;
13263;SDS011;6700;51.988;7.646;2023-07-29T13:14:48;2.97;;;1.70;;
13263;SDS011;6700;51.988;7.646;2023-07-29T13:17:15;1.70;;;1.60;;
13263;SDS011;6700;51.988;7.646;2023-07-29T13:19:42;2.10;;;1.90;;
13263;SDS011;6700;51.988;7.646;2023-07-29T13:22:09;1.92;;;1.77;;
13263;SDS011;6700;51.988;7.646;2023-07-29T13:24:36;2.03;;;1.83;;
13263;SDS011;6700;51.988;7.646;2023-07-29T13:27:04;1.90;;;1.80;;
13263;SDS011;6700;51.988;7.646;2023-07-29T13:29:31;1.83;;;1.73;;
13263;SDS011;6700;51.988;7.646;2023-07-29T13:31:58;2.28;;;1.95;;
13263;SDS011;6700;51.988;7.646;2023-07-29T13:34:25;1.20;;;1.20;;
13263;SDS011;6700;51.988;7.646;2023-07-29T13:36:52;2.13;;;2.00;;
13263;SDS011;6700;51.988;7.646;2023-07-29T13:39:21;1.88;;;1.70;;
13263;SDS011;6700;51.988;7.646;2023-07-29T13:41:48;1.98;;;1.88;;
13263;SDS011;6700;51.988;7.646;2023-07-29T13:44:15;1.70;;;1.60;;
13263;SDS011;6700;51.988;7.646;2023-07-29T13:46:42;1.95;;;1.83;;
13263;SDS011;6700;51.988;7.646;2023-07-29T13:49:10;2.10;;;1.90;;
13263;SDS011;6700;51.988;7.646;2023-07-29T13:51:38;1.80;;;1.70;;
13263;SDS011;6700;51.988;7.646;2023-07-29T13:54:05;1.92;;;1.70;;
13263;SDS011;6700;51.988;7.646;2023-07-29T13:56:32;2.97;;;1.80;;
13263;SDS011;6700;51.988;7.646;2023-07-29T13:59:00;3.65;;;2.20;;
13263;SDS011;6700;51.988;7.646;2023-07-29T14:01:28;1.95;;;1.85;;
13263;SDS011;6700;51.988;7.646;2023-07-29T14:03:56;2.17;;;1.90;;
13263;SDS011;6700;51.988;7.646;2023-07-29T14:06:23;2.38;;;1.80;;
13263;SDS011;6700;51.988;7.646;2023-07-29T14:09:10;7.47;;;3.00;;
13263;SDS011;6700;51.988;7.646;2023-07-29T14:11:38;7.28;;;2.30;;
13263;SDS011;6700;51.988;7.646;2023-07-29T14:14:06;3.05;;;2.40;;
13263;SDS011;6700;51.988;7.646;2023-07-29T14:16:33;2.80;;;2.08;;
13263;SDS011;6700;51.988;7.646;2023-07-29T14:19:02;2.60;;;2.40;;
13263;SDS011;6700;51.988;7.646;2023-07-29T14:21:29;2.55;;;2.35;;
13263;SDS011;6700;51.988;7.646;2023-07-29T14:23:57;3.03;;;2.22;;
13263;SDS011;6700;51.988;7.646;2023-07-29T14:26:24;2.40;;;2.20;;
13263;SDS011;6700;51.988;7.646;2023-07-29T14:28:51;3.35;;;2.70;;
13263;SDS011;6700;51.988;7.646;2023-07-29T14:31:19;4.25;;;2.88;;
13263;SDS011;6700;51.988;7.646;2023-07-29T14:33:46;3.53;;;2.63;;
13263;SDS011;6700;51.988;7.646;2023-07-29T14:36:13;5.95;;;2.92;;
13263;SDS011;6700;51.988;7.646;2023-07-29T14:38:40;4.30;;;3.45;;
13263;SDS011;6700;51.988;7.646;2023-07-29T14:41:08;5.57;;;2.00;;
13263;SDS011;6700;51.988;7.646;2023-07-29T14:43:35;2.20;;;2.00;;
13263;SDS011;6700;51.988;7.646;2023-07-29T14:46:03;7.03;;;2.28;;
13263;SDS011;6700;51.988;7.646;2023-07-29T14:48:30;2.53;;;2.33;;
13263;SDS011;6700;51.988;7.646;2023-07-29T14:50:58;3.92;;;1.88;;
13263;SDS011;6700;51.988;7.646;2023-07-29T14:53:25;2.33;;;2.13;;
13263;SDS011;6700;51.988;7.646;2023-07-29T14:55:52;2.17;;;1.87;;
13263;SDS011;6700;51.988;7.646;2023-07-29T14:58:20;5.43;;;2.28;;
13263;SDS011;6700;51.988;7.646;2023-07-29T15:00:47;5.13;;;2.10;;
13263;SDS011;6700;51.988;7.646;2023-07-29T15:03:15;1.98;;;1.67;;
13263;SDS011;6700;51.988;7.646;2023-07-29T15:05:42;1.60;;;1.50;;
13263;SDS011;6700;51.988;7.646;2023-07-29T15:08:10;1.65;;;1.48;;
13263;SDS011;6700;51.988;7.646;2023-07-29T15:10:37;4.13;;;1.67;;
13263;SDS011;6700;51.988;7.646;2023-07-29T15:13:04;1.40;;;1.30;;